Time;durP1;ratioP1;P1;durP2;ratioP2;P2;SDS_P1;SDS_P2;PMS_P1;PMS_P2;Temp;Humidity;BMP_temperature;BMP_pressure;BME280_temperature;BME280_humidity;BME280_pressure;Samples;Min_cycle;Max_cycle;Signal;HPM_P1;HPM_P2
2021/12/07 00:01:44;;;;;;;5.78;4.88;;;19.20;43.90;;;;;;5116332;28;20034;-92
2021/12/07 00:04:10;;;;;;;7.18;4.85;;;19.20;43.90;;;;;;5099020;28;20389;-92
2021/12/07 00:06:37;;;;;;;5.72;4.95;;;19.20;44.00;;;;;;5116169;28;20020;-92
2021/12/07 00:09:08;;;;;;;5.78;5.07;;;19.20;44.10;;;;;;5116040;28;20051;-92
2021/12/07 00:11:33;;;;;;;5.78;5.18;;;19.20;44.10;;;;;;5117220;28;20028;-92
2021/12/07 00:14:00;;;;;;;5.50;4.82;;;19.10;44.10;;;;;;5116099;28;20024;-92
2021/12/07 00:16:28;;;;;;;5.80;5.00;;;19.10;44.20;;;;;;5116850;28;20019;-91
2021/12/07 00:18:54;;;;;;;5.63;5.00;;;19.10;44.20;;;;;;5116975;28;20032;-91
2021/12/07 00:21:20;;;;;;;5.57;5.07;;;19.00;44.20;;;;;;5115745;28;20026;-92
2021/12/07 00:23:48;;;;;;;5.72;5.13;;;19.00;44.20;;;;;;5116575;28;20031;-92
2021/12/07 00:26:15;;;;;;;8.10;5.30;;;19.00;44.20;;;;;;5116912;28;20020;-92
2021/12/07 00:28:42;;;;;;;7.30;5.63;;;19.00;44.00;;;;;;5115638;28;20031;-91
2021/12/07 00:31:36;;;;;;;6.95;5.93;;;18.90;43.90;;;;;;5115599;28;20047;-92
2021/12/07 00:36:46;;;;;;;6.10;5.32;;;18.80;43.90;;;;;;5116858;28;20118;-92
2021/12/07 00:39:16;;;;;;;7.00;5.13;;;18.80;44.00;;;;;;5116296;28;20028;-91
2021/12/07 00:41:42;;;;;;;6.40;5.30;;;18.80;44.10;;;;;;5115290;28;20062;-92
2021/12/07 00:44:09;;;;;;;5.97;5.15;;;18.80;44.10;;;;;;5115547;28;20028;-91
2021/12/07 00:46:35;;;;;;;7.05;5.28;;;18.80;44.10;;;;;;5115387;28;20031;-92
2021/12/07 00:49:02;;;;;;;6.10;5.43;;;18.70;43.90;;;;;;5115071;28;20489;-92
2021/12/07 00:51:28;;;;;;;5.68;5.10;;;18.70;43.90;;;;;;5115599;28;20469;-92
2021/12/07 00:53:54;;;;;;;5.55;4.97;;;18.60;43.80;;;;;;5114915;28;20076;-92
2021/12/07 00:56:19;;;;;;;5.80;4.93;;;18.70;43.90;;;;;;5115182;28;20051;-92
2021/12/07 00:58:46;;;;;;;5.68;5.10;;;18.60;44.90;;;;;;5115051;28;20024;-91
2021/12/07 01:01:14;;;;;;;5.63;5.03;;;18.60;44.00;;;;;;5114839;28;20104;-92
2021/12/07 01:03:41;;;;;;;5.85;5.13;;;18.60;44.00;;;;;;5114723;28;20057;-91
2021/12/07 01:09:06;;;;;;;5.25;4.53;;;18.50;44.00;;;;;;5116286;28;20096;-92
2021/12/07 01:25:20;;;;;;;5.50;4.32;;;18.40;44.20;;;;;;5115665;28;20127;-91
2021/12/07 01:27:49;;;;;;;4.72;4.15;;;18.40;44.30;;;;;;5114770;28;20054;-91
2021/12/07 01:30:30;;;;;;;5.20;4.30;;;18.30;44.30;;;;;;5114582;28;20024;-92
2021/12/07 01:59:37;;;;;;;4.13;3.47;;;18.10;44.80;;;;;;5115065;28;20076;-91
2021/12/07 02:02:09;;;;;;;3.97;3.58;;;18.00;44.80;;;;;;5114839;28;20065;-91
2021/12/07 02:04:36;;;;;;;4.53;3.63;;;18.00;44.90;;;;;;5113633;28;20035;-91
2021/12/07 02:07:03;;;;;;;4.60;3.67;;;18.00;44.90;;;;;;5114590;28;20023;-91
2021/12/07 02:09:30;;;;;;;3.92;3.53;;;18.00;44.90;;;;;;5113560;28;20464;-91
2021/12/07 02:12:00;;;;;;;4.10;3.70;;;18.00;45.00;;;;;;5113497;28;20051;-92
2021/12/07 02:14:27;;;;;;;4.03;3.53;;;18.00;46.10;;;;;;5114487;28;20023;-91
2021/12/07 02:16:55;;;;;;;4.18;3.60;;;17.90;45.00;;;;;;5114727;28;20024;-91
2021/12/07 02:19:22;;;;;;;4.13;3.53;;;17.90;45.10;;;;;;5113465;28;20169;-92
2021/12/07 02:21:49;;;;;;;4.00;3.60;;;17.90;45.10;;;;;;5113328;28;20030;-91
2021/12/07 02:24:14;;;;;;;3.55;3.25;;;17.90;45.10;;;;;;5114603;28;20030;-91
2021/12/07 02:26:40;;;;;;;3.88;3.58;;;17.90;45.20;;;;;;5113303;28;20401;-91
2021/12/07 02:29:07;;;;;;;3.58;3.28;;;17.80;45.10;;;;;;5114648;28;20040;-91
2021/12/07 02:31:33;;;;;;;4.68;3.50;;;17.80;45.10;;;;;;5113170;28;20112;-91
2021/12/07 02:34:00;;;;;;;3.92;3.53;;;17.80;45.20;;;;;;5113218;28;20046;-92
2021/12/07 02:36:26;;;;;;;3.22;2.92;;;17.80;45.20;;;;;;5114359;28;20381;-91
2021/12/07 02:38:52;;;;;;;3.65;3.10;;;17.70;45.20;;;;;;5113267;28;20027;-91
2021/12/07 02:41:18;;;;;;;3.28;2.97;;;17.70;45.30;;;;;;5113471;28;20019;-91
2021/12/07 02:43:44;;;;;;;3.45;3.15;;;17.70;45.30;;;;;;5113455;28;20055;-91
2021/12/07 02:46:10;;;;;;;3.78;3.38;;;17.70;45.30;;;;;;5112837;28;20454;-92
2021/12/07 02:48:36;;;;;;;3.47;3.17;;;17.70;45.30;;;;;;5112746;28;20486;-91
2021/12/07 02:51:02;;;;;;;3.40;3.10;;;17.70;45.40;;;;;;5112945;28;20034;-92
2021/12/07 02:53:29;;;;;;;3.20;2.90;;;17.60;45.40;;;;;;5114057;28;20023;-91
2021/12/07 02:55:56;;;;;;;3.35;3.05;;;17.60;45.50;;;;;;5113972;28;20481;-91
2021/12/07 02:58:22;;;;;;;3.40;3.10;;;17.60;45.50;;;;;;5114180;28;20028;-91
2021/12/07 03:00:58;;;;;;;3.40;3.10;;;17.60;45.60;;;;;;5113999;28;20023;-91
2021/12/07 03:03:24;;;;;;;3.40;3.10;;;17.50;45.50;;;;;;5112985;28;20350;-91
2021/12/07 03:06:18;;;;;;;3.30;3.00;;;17.50;45.50;;;;;;5113945;28;20030;-91
2021/12/07 03:28:10;;;;;;;3.20;2.90;;;17.40;45.80;;;;;;5118441;28;20064;-91
2021/12/07 03:30:37;;;;;;;3.00;2.70;;;17.40;45.90;;;;;;5116682;28;20031;-91
2021/12/07 03:33:04;;;;;;;3.17;2.85;;;17.40;45.90;;;;;;5116489;28;20028;-91
2021/12/07 03:35:31;;;;;;;3.08;2.78;;;17.30;45.80;;;;;;5116646;28;20038;-91
2021/12/07 03:37:57;;;;;;;3.10;2.78;;;17.30;45.90;;;;;;5116573;28;20483;-91
2021/12/07 03:40:23;;;;;;;3.10;2.80;;;17.30;45.80;;;;;;5116386;28;20112;-91
2021/12/07 03:42:49;;;;;;;3.88;2.55;;;17.30;45.90;;;;;;5117668;28;20362;-91
2021/12/07 03:45:24;;;;;;;3.00;2.63;;;17.30;45.90;;;;;;5116474;28;20027;-91
2021/12/07 03:47:50;;;;;;;2.80;2.60;;;17.30;45.90;;;;;;5116172;28;20404;-91
2021/12/07 03:50:16;;;;;;;2.78;2.40;;;17.30;46.00;;;;;;5117479;28;20031;-91
2021/12/07 03:52:42;;;;;;;3.15;2.28;;;17.20;46.00;;;;;;5117523;28;20527;-91
2021/12/07 03:55:08;;;;;;;3.25;2.58;;;17.20;46.00;;;;;;5117341;28;20023;-91
2021/12/07 03:57:34;;;;;;;2.72;2.53;;;17.20;46.00;;;;;;5117273;28;20362;-91
2021/12/07 04:00:00;;;;;;;2.92;2.60;;;17.20;46.00;;;;;;5115706;28;20024;-91
2021/12/07 04:02:27;;;;;;;2.75;2.55;;;17.20;46.10;;;;;;5116237;28;20110;-91
2021/12/07 04:04:59;;;;;;;2.80;2.50;;;17.20;46.20;;;;;;5116035;28;20019;-91
2021/12/07 04:07:25;;;;;;;2.53;2.30;;;17.10;46.20;;;;;;5117146;28;20464;-91
2021/12/07 04:09:52;;;;;;;2.72;2.50;;;17.10;46.20;;;;;;5115726;28;20032;-91
2021/12/07 04:12:17;;;;;;;2.25;2.05;;;17.10;46.30;;;;;;5115992;28;20024;-91
2021/12/07 04:14:43;;;;;;;2.70;2.50;;;17.10;46.30;;;;;;5115962;28;20028;-91
2021/12/07 04:17:08;;;;;;;2.47;2.28;;;17.10;46.30;;;;;;5115701;28;20035;-92
2021/12/07 04:19:34;;;;;;;2.00;1.90;;;17.00;46.30;;;;;;5117181;28;20032;-91
2021/12/07 04:22:00;;;;;;;2.22;2.03;;;17.00;46.40;;;;;;5115470;28;20024;-92
2021/12/07 04:24:27;;;;;;;2.00;1.90;;;17.00;46.40;;;;;;5115522;28;20401;-91
2021/12/07 04:26:54;;;;;;;2.38;2.17;;;17.00;46.40;;;;;;5115691;28;20076;-91
2021/12/07 04:29:21;;;;;;;2.42;2.15;;;17.00;46.40;;;;;;5115628;28;20481;-91
2021/12/07 04:31:47;;;;;;;2.30;2.10;;;17.00;46.40;;;;;;5115656;28;20027;-91
2021/12/07 04:34:12;;;;;;;2.00;1.80;;;17.00;46.50;;;;;;5115568;28;20023;-91
2021/12/07 04:36:38;;;;;;;2.35;2.10;;;17.00;46.60;;;;;;5114773;28;20070;-91
2021/12/07 04:39:04;;;;;;;2.50;1.98;;;16.90;46.60;;;;;;5116739;28;20031;-91
2021/12/07 04:41:33;;;;;;;2.20;2.03;;;16.90;46.60;;;;;;5115395;28;20119;-91
2021/12/07 04:44:00;;;;;;;1.90;1.80;;;16.90;46.70;;;;;;5116472;28;20043;-91
2021/12/07 04:46:38;;;;;;;2.13;1.80;;;16.90;46.80;;;;;;5115359;28;20019;-92
2021/12/07 05:00:08;;;;;;;2.20;2.00;;;16.80;47.20;;;;;;5116050;28;20542;-92
2021/12/07 05:02:37;;;;;;;1.92;1.73;;;16.80;47.20;;;;;;5115903;28;20015;-92
2021/12/07 05:05:03;;;;;;;1.83;1.70;;;16.70;47.20;;;;;;5114750;28;20020;-91
2021/12/07 05:07:37;;;;;;;1.92;1.73;;;16.70;47.30;;;;;;5114745;28;20019;-92
2021/12/07 05:12:56;;;;;;;1.90;1.70;;;16.70;47.30;;;;;;5115866;28;20469;-91
2021/12/07 05:15:30;;;;;;;1.83;1.58;;;16.70;47.40;;;;;;5114620;28;20019;-91
2021/12/07 05:39:28;;;;;;;2.45;1.80;;;16.50;47.60;;;;;;5115487;28;20023;-92
2021/12/07 05:41:54;;;;;;;2.15;1.50;;;16.50;47.60;;;;;;5115167;28;20465;-91
2021/12/07 05:44:20;;;;;;;1.80;1.67;;;16.50;47.70;;;;;;5115223;28;20055;-91
2021/12/07 05:46:46;;;;;;;1.88;1.42;;;16.50;47.70;;;;;;5114152;28;20080;-91
2021/12/07 05:49:11;;;;;;;1.60;1.50;;;16.50;47.70;;;;;;5113141;28;20512;-91
2021/12/07 05:51:37;;;;;;;1.92;1.77;;;16.50;47.70;;;;;;5115132;28;20494;-92
2021/12/07 05:54:03;;;;;;;1.77;1.67;;;16.50;47.80;;;;;;5113984;28;20023;-91
2021/12/07 05:56:29;;;;;;;1.60;1.50;;;16.50;47.70;;;;;;5113828;28;20465;-91
2021/12/07 05:58:54;;;;;;;1.67;1.58;;;16.40;47.70;;;;;;5113767;28;20038;-91
2021/12/07 06:01:20;;;;;;;1.58;1.48;;;16.40;47.70;;;;;;5113821;28;20023;-91
2021/12/07 06:03:45;;;;;;;1.40;1.30;;;16.40;47.70;;;;;;5119183;28;20023;-91
2021/12/07 06:06:11;;;;;;;1.73;1.58;;;16.40;47.80;;;;;;5125302;28;20027;-91
2021/12/07 06:08:37;;;;;;;1.70;1.60;;;16.40;47.80;;;;;;5126622;28;20484;-91
2021/12/07 06:11:02;;;;;;;1.65;1.48;;;16.40;47.70;;;;;;5125110;28;20022;-91
2021/12/07 06:13:28;;;;;;;1.88;1.45;;;16.40;47.60;;;;;;5125206;28;20024;-89
2021/12/07 06:15:54;;;;;;;1.40;1.30;;;16.40;47.50;;;;;;5122207;28;20023;-91
2021/12/07 06:18:20;;;;;;;1.50;1.40;;;16.40;47.60;;;;;;5123339;28;20034;-92
2021/12/07 06:20:46;;;;;;;1.48;1.35;;;16.50;47.60;;;;;;5115258;28;20098;-92
2021/12/07 06:23:17;;;;;;;1.40;1.30;;;16.50;47.70;;;;;;5115061;28;20019;-92
2021/12/07 06:25:44;;;;;;;1.20;1.10;;;16.60;47.60;;;;;;5114716;28;20012;-92
2021/12/07 06:28:09;;;;;;;1.60;1.40;;;16.60;47.60;;;;;;5113609;28;20096;-92
2021/12/07 06:30:35;;;;;;;1.55;1.45;;;16.70;47.50;;;;;;5114716;28;20465;-92
2021/12/07 06:33:01;;;;;;;1.45;1.20;;;16.70;48.40;;;;;;5114232;28;20019;-92
2021/12/07 06:35:26;;;;;;;1.42;1.10;;;16.80;47.20;;;;;;5114741;28;20051;-92
2021/12/07 06:37:52;;;;;;;1.83;1.10;;;16.90;47.20;;;;;;5113439;28;20043;-91
2021/12/07 06:40:18;;;;;;;2.08;1.13;;;17.00;47.00;;;;;;5114558;28;20373;-92
2021/12/07 06:42:43;;;;;;;1.30;1.20;;;17.10;47.00;;;;;;5114531;28;20020;-92
2021/12/07 06:45:10;;;;;;;1.00;0.90;;;17.20;46.80;;;;;;5114642;28;20023;-92
2021/12/07 06:47:37;;;;;;;2.05;1.08;;;17.30;46.70;;;;;;5114369;28;20130;-92
2021/12/07 06:50:08;;;;;;;1.40;1.00;;;17.50;46.60;;;;;;5114507;28;20024;-91
2021/12/07 06:52:34;;;;;;;1.10;0.88;;;17.60;46.50;;;;;;5114199;28;20024;-91
2021/12/07 06:55:00;;;;;;;1.00;0.82;;;17.70;46.20;;;;;;5113356;28;20015;-91
2021/12/07 06:57:27;;;;;;;1.17;0.90;;;17.90;46.10;;;;;;5113215;28;20020;-92
2021/12/07 06:59:53;;;;;;;1.25;0.95;;;18.00;46.00;;;;;;5113948;28;20024;-93
2021/12/07 07:02:19;;;;;;;0.85;0.80;;;18.20;45.70;;;;;;5117380;28;20385;-91
2021/12/07 07:04:45;;;;;;;4.53;1.27;;;18.40;45.50;;;;;;5117205;28;20023;-91
2021/12/07 07:07:11;;;;;;;1.63;1.08;;;18.50;45.30;;;;;;5117055;28;20020;-91
2021/12/07 07:09:36;;;;;;;2.35;0.80;;;18.70;45.00;;;;;;5118527;28;20024;-91
2021/12/07 07:12:03;;;;;;;2.78;0.93;;;18.80;44.60;;;;;;5117648;28;20354;-91
2021/12/07 07:14:28;;;;;;;3.42;1.10;;;18.90;44.30;;;;;;5118447;28;20028;-92
2021/12/07 07:16:54;;;;;;;4.63;1.52;;;19.10;44.20;;;;;;5118352;28;20019;-91
2021/12/07 07:19:20;;;;;;;1.27;0.80;;;19.20;43.90;;;;;;5118037;28;20024;-90
2021/12/07 07:21:45;;;;;;;3.45;1.00;;;19.30;43.60;;;;;;5116877;28;20032;-92
2021/12/07 07:24:11;;;;;;;3.58;1.20;;;19.40;43.50;;;;;;5117041;28;20016;-91
2021/12/07 07:26:37;;;;;;;4.10;0.98;;;19.50;43.30;;;;;;5118007;28;20099;-92
2021/12/07 07:29:03;;;;;;;2.97;1.00;;;19.60;43.20;;;;;;5116740;28;20110;-91
2021/12/07 07:31:29;;;;;;;1.25;0.90;;;19.60;43.10;;;;;;5116706;28;20499;-92
2021/12/07 07:33:55;;;;;;;3.75;0.82;;;19.70;42.90;;;;;;5117979;28;20034;-91
2021/12/07 07:36:21;;;;;;;3.83;1.17;;;19.80;42.80;;;;;;5117792;28;20019;-90
2021/12/07 07:38:46;;;;;;;6.78;1.08;;;19.90;42.80;;;;;;5116475;28;20127;-88
2021/12/07 07:41:12;;;;;;;3.47;1.20;;;19.90;42.70;;;;;;5116317;28;20072;-86
2021/12/07 07:43:37;;;;;;;3.15;1.00;;;20.00;42.90;;;;;;5117445;28;20028;-90
2021/12/07 07:46:03;;;;;;;4.53;1.10;;;20.00;43.00;;;;;;5117202;28;20027;-87
2021/12/07 07:48:29;;;;;;;5.43;1.20;;;20.00;42.90;;;;;;5116973;28;20050;-86
2021/12/07 07:50:56;;;;;;;3.25;1.40;;;20.00;42.80;;;;;;5117354;28;20053;-87
2021/12/07 07:53:22;;;;;;;19.02;2.33;;;20.10;43.10;;;;;;5117178;28;20023;-86
2021/12/07 07:55:47;;;;;;;14.88;2.30;;;20.10;42.90;;;;;;5117158;28;20023;-88
2021/12/07 07:58:13;;;;;;;16.27;2.60;;;20.10;42.60;;;;;;5117068;28;20054;-88
2021/12/07 08:00:41;;;;;;;13.20;2.75;;;20.10;42.30;;;;;;5116941;28;20542;-87
2021/12/07 08:03:06;;;;;;;11.43;2.30;;;20.10;42.20;;;;;;5116954;28;20028;-86
2021/12/07 08:05:33;;;;;;;9.60;2.10;;;20.10;42.20;;;;;;5116799;28;20094;-85
2021/12/07 08:07:59;;;;;;;8.95;1.85;;;20.10;42.40;;;;;;5116731;28;20051;-87
2021/12/07 08:10:28;;;;;;;8.77;1.73;;;20.10;42.50;;;;;;5116982;28;20078;-87
2021/12/07 08:13:03;;;;;;;7.40;1.90;;;20.10;42.60;;;;;;5116021;28;20073;-86
2021/12/07 08:15:36;;;;;;;8.10;2.10;;;20.10;42.70;;;;;;5117003;28;20031;-87
2021/12/07 08:18:02;;;;;;;10.30;1.65;;;20.20;42.70;;;;;;5116944;28;20015;-85
2021/12/07 08:20:28;;;;;;;9.75;1.70;;;20.20;42.80;;;;;;5116767;28;20473;-87
2021/12/07 08:22:54;;;;;;;10.30;1.88;;;20.20;42.70;;;;;;5116645;28;20035;-85
2021/12/07 08:25:19;;;;;;;3.88;1.17;;;20.30;42.80;;;;;;5116598;28;20100;-87
2021/12/07 08:27:45;;;;;;;6.78;1.52;;;20.30;42.80;;;;;;5116771;28;20035;-88
2021/12/07 08:30:13;;;;;;;9.30;2.08;;;20.30;42.80;;;;;;5116556;28;20028;-85
2021/12/07 08:32:44;;;;;;;8.05;2.15;;;20.30;42.80;;;;;;5116431;28;20024;-89
2021/12/07 08:35:11;;;;;;;4.72;1.55;;;20.40;42.80;;;;;;5115271;28;20033;-88
2021/12/07 08:37:36;;;;;;;6.18;1.60;;;20.40;42.90;;;;;;5116335;28;20030;-88
2021/12/07 08:40:04;;;;;;;7.43;1.85;;;20.40;42.80;;;;;;5114733;28;20103;-90
2021/12/07 08:42:30;;;;;;;12.52;1.60;;;20.40;42.80;;;;;;5116099;28;20027;-86
2021/12/07 08:44:55;;;;;;;7.32;1.77;;;20.40;42.80;;;;;;5115410;28;20024;-86
2021/12/07 08:47:21;;;;;;;5.38;1.45;;;20.50;43.10;;;;;;5116076;28;20030;-87
2021/12/07 08:49:47;;;;;;;4.10;1.30;;;20.50;43.10;;;;;;5105981;28;20865;-90
2021/12/07 08:52:12;;;;;;;5.38;1.55;;;20.50;43.10;;;;;;5115585;28;20027;-89
2021/12/07 08:59:52;;;;;;;9.13;1.50;;;20.50;42.90;;;;;;5095820;28;20038;-86
2021/12/07 09:02:22;;;;;;;7.05;1.27;;;20.50;43.00;;;;;;5095487;28;20465;-87
2021/12/07 09:04:48;;;;;;;6.20;1.30;;;20.50;42.90;;;;;;5095353;28;20070;-88
2021/12/07 09:07:14;;;;;;;4.57;1.13;;;20.50;42.90;;;;;;5095120;28;20474;-88
2021/12/07 09:09:43;;;;;;;7.72;1.20;;;20.50;42.90;;;;;;5095211;28;20498;-85
2021/12/07 09:12:11;;;;;;;9.98;1.27;;;20.50;43.00;;;;;;5095132;28;20386;-86
2021/12/07 09:14:37;;;;;;;6.55;1.33;;;20.60;44.00;;;;;;5095098;28;20032;-86
2021/12/07 09:17:04;;;;;;;10.48;1.50;;;20.60;43.00;;;;;;5095049;28;20466;-89
2021/12/07 09:19:30;;;;;;;7.22;1.50;;;20.60;42.90;;;;;;5102501;28;20104;-88
2021/12/07 09:21:55;;;;;;;5.30;1.60;;;20.60;43.00;;;;;;5115454;28;20070;-89
2021/12/07 09:24:22;;;;;;;5.90;1.38;;;20.60;43.00;;;;;;5115745;28;20024;-88
2021/12/07 09:26:48;;;;;;;5.20;1.27;;;20.60;43.00;;;;;;5115520;28;20023;-89
2021/12/07 09:29:14;;;;;;;6.25;1.33;;;20.60;43.10;;;;;;5115055;28;20099;-86
2021/12/07 09:31:40;;;;;;;8.77;1.73;;;20.60;43.10;;;;;;5115380;28;20031;-88
2021/12/07 09:34:06;;;;;;;7.03;1.45;;;20.60;43.10;;;;;;5115199;28;20092;-86
2021/12/07 09:36:32;;;;;;;8.52;1.23;;;20.60;43.10;;;;;;5115199;28;20472;-87
2021/12/07 09:38:59;;;;;;;6.55;1.33;;;20.60;43.10;;;;;;5114852;28;20111;-86
2021/12/07 09:41:24;;;;;;;6.35;1.30;;;20.60;43.20;;;;;;5114959;28;20028;-85
2021/12/07 09:43:51;;;;;;;6.53;1.50;;;20.60;43.20;;;;;;5114857;28;20019;-87
2021/12/07 09:46:17;;;;;;;7.68;1.23;;;20.60;43.20;;;;;;5114751;28;20461;-86
2021/12/07 09:48:44;;;;;;;6.20;1.15;;;20.70;43.30;;;;;;5114635;28;20047;-86
2021/12/07 09:51:11;;;;;;;5.30;1.20;;;20.60;43.20;;;;;;5114827;28;20110;-86
2021/12/07 09:53:37;;;;;;;6.35;1.10;;;20.60;43.30;;;;;;5114638;28;20023;-86
2021/12/07 09:56:06;;;;;;;4.28;1.75;;;20.70;43.40;;;;;;5113475;28;20046;-86
2021/12/07 09:58:32;;;;;;;8.88;1.25;;;20.70;43.40;;;;;;5114809;28;20019;-86
2021/12/07 10:00:58;;;;;;;4.13;1.27;;;20.60;43.30;;;;;;5114578;28;20032;-86
2021/12/07 10:03:25;;;;;;;4.47;1.00;;;20.70;43.40;;;;;;5114505;28;20381;-86
2021/12/07 10:05:51;;;;;;;5.82;1.42;;;20.60;43.40;;;;;;5114799;28;20024;-87
2021/12/07 10:08:17;;;;;;;4.18;1.50;;;20.70;43.50;;;;;;5114519;28;20095;-87
2021/12/07 10:10:46;;;;;;;7.55;1.30;;;20.70;43.60;;;;;;5114291;28;20027;-89
2021/12/07 10:13:13;;;;;;;5.53;1.30;;;20.70;43.60;;;;;;5111417;28;20069;-88
2021/12/07 10:15:40;;;;;;;4.95;1.08;;;20.70;43.60;;;;;;5112464;28;20031;-88
2021/12/07 10:18:12;;;;;;;6.10;1.15;;;20.70;43.70;;;;;;5113793;28;20100;-89
2021/12/07 10:20:42;;;;;;;10.18;1.35;;;20.70;43.60;;;;;;5114176;28;20016;-87
2021/12/07 10:23:14;;;;;;;4.95;1.08;;;20.70;43.70;;;;;;5113727;28;20091;-86
2021/12/07 10:25:45;;;;;;;8.48;2.03;;;20.70;43.70;;;;;;5114389;28;20024;-87
2021/12/07 10:28:24;;;;;;;6.07;1.02;;;20.70;43.80;;;;;;5114395;28;20020;-88
2021/12/07 10:30:50;;;;;;;6.68;1.40;;;20.70;43.60;;;;;;5113947;28;20466;-87
2021/12/07 10:33:29;;;;;;;7.65;1.48;;;20.70;43.70;;;;;;5112981;28;20023;-87
2021/12/07 10:36:09;;;;;;;5.95;1.50;;;20.70;43.80;;;;;;5113895;28;20465;-86
2021/12/07 10:38:37;;;;;;;5.53;0.90;;;20.70;43.70;;;;;;5113908;28;20373;-86
2021/12/07 10:41:11;;;;;;;4.78;1.15;;;20.70;43.80;;;;;;5114063;28;20016;-87
2021/12/07 10:43:42;;;;;;;8.27;1.35;;;20.70;43.70;;;;;;5113012;28;20565;-88
2021/12/07 10:46:45;;;;;;;5.85;1.15;;;20.70;43.80;;;;;;5112753;28;20106;-87
2021/12/07 10:49:26;;;;;;;5.63;1.10;;;20.70;43.80;;;;;;5113807;28;20087;-87
2021/12/07 10:52:15;;;;;;;6.10;1.10;;;20.70;43.80;;;;;;5114064;28;20540;-87
2021/12/07 10:54:57;;;;;;;6.13;1.20;;;20.70;43.80;;;;;;5113950;28;20397;-87
2021/12/07 10:57:50;;;;;;;4.88;1.17;;;20.70;44.00;;;;;;5113871;28;20043;-87
2021/12/07 11:00:23;;;;;;;3.65;1.15;;;20.70;43.80;;;;;;5113743;28;20028;-87
2021/12/07 11:02:49;;;;;;;;;;;20.70;43.80;;;;;;5113036;28;20088;-88
2021/12/07 11:05:20;;;;;;;3.97;0.90;;;20.60;43.80;;;;;;5112445;28;20417;-88
2021/12/07 11:07:45;;;;;;;6.47;1.27;;;20.70;43.90;;;;;;5114033;28;20024;-89
2021/12/07 11:10:20;;;;;;;6.53;1.10;;;20.70;43.90;;;;;;5112389;28;20036;-87
2021/12/07 11:13:34;;;;;;;5.10;1.00;;;20.70;43.90;;;;;;5112928;28;20528;-87
2021/12/07 11:15:53;;;;;;;4.75;1.27;;;20.70;43.90;;;;;;5111714;28;20042;-86
2021/12/07 11:18:25;;;;;;;8.07;1.00;;;20.70;43.90;;;;;;5112345;28;20149;-87
2021/12/07 11:20:53;;;;;;;6.22;1.20;;;20.70;43.80;;;;;;5112319;28;20019;-87
2021/12/07 11:23:26;;;;;;;5.75;1.40;;;20.70;43.90;;;;;;5112452;28;20076;-87
2021/12/07 11:31:22;;;;;;;6.13;1.17;;;20.70;44.00;;;;;;5113949;28;20039;-88
2021/12/07 11:33:50;;;;;;;3.70;0.95;;;20.70;44.10;;;;;;5113535;28;20023;-88
2021/12/07 11:36:30;;;;;;;4.28;1.15;;;20.70;44.00;;;;;;5113449;28;20024;-89
2021/12/07 11:38:57;;;;;;;5.72;1.50;;;20.70;44.00;;;;;;5111998;28;20038;-88
2021/12/07 11:41:32;;;;;;;6.00;1.20;;;20.70;44.00;;;;;;5113461;28;20024;-87
2021/12/07 11:44:08;;;;;;;4.60;1.17;;;20.70;44.00;;;;;;5113403;28;20525;-89
2021/12/07 11:46:38;;;;;;;4.07;1.00;;;20.70;44.00;;;;;;5112556;28;20354;-88
2021/12/07 11:49:25;;;;;;;3.35;1.27;;;20.70;44.00;;;;;;5115628;28;20073;-88
2021/12/07 11:51:54;;;;;;;4.07;1.00;;;20.70;44.00;;;;;;5117132;28;20099;-88
2021/12/07 11:54:24;;;;;;;3.70;1.30;;;20.70;44.00;;;;;;5116877;28;20050;-88
2021/12/07 11:56:50;;;;;;;2.67;1.20;;;20.70;44.00;;;;;;5117017;28;20081;-88
2021/12/07 11:59:16;;;;;;;4.78;1.17;;;20.70;44.00;;;;;;5117001;28;20561;-88
2021/12/07 12:01:47;;;;;;;5.18;1.50;;;20.70;44.00;;;;;;5115606;28;20027;-89
2021/12/07 12:04:15;;;;;;;5.45;1.10;;;20.70;43.80;;;;;;5116850;28;20035;-89
2021/12/07 12:06:43;;;;;;;5.13;1.13;;;20.70;43.80;;;;;;5116974;28;20035;-86
2021/12/07 12:09:09;;;;;;;7.47;1.20;;;20.70;43.60;;;;;;5116738;28;20424;-86
2021/12/07 12:11:45;;;;;;;6.47;1.27;;;20.60;43.50;;;;;;5116701;28;20019;-87
2021/12/07 12:14:29;;;;;;;6.38;1.20;;;20.60;43.50;;;;;;5116584;28;20027;-89
2021/12/07 12:17:05;;;;;;;6.88;1.42;;;20.60;43.40;;;;;;5116553;28;20481;-89
2021/12/07 12:20:14;;;;;;;8.55;1.60;;;20.60;43.50;;;;;;5116711;28;20028;-88
2021/12/07 12:22:59;;;;;;;6.40;1.73;;;20.60;43.50;;;;;;5116592;28;20047;-86
2021/12/07 12:25:27;;;;;;;4.75;1.23;;;20.60;43.60;;;;;;5116663;28;20109;-86
2021/12/07 12:27:54;;;;;;;6.47;1.50;;;20.60;43.60;;;;;;5116640;28;20050;-88
2021/12/07 12:30:36;;;;;;;6.65;1.30;;;20.60;44.60;;;;;;5115161;28;20024;-86
2021/12/07 12:33:11;;;;;;;5.10;1.60;;;20.60;43.60;;;;;;5116528;28;20035;-86
2021/12/07 12:35:43;;;;;;;4.45;1.10;;;20.60;43.60;;;;;;5116473;28;20512;-88
2021/12/07 12:38:27;;;;;;;7.47;1.60;;;20.60;43.70;;;;;;5116272;28;20032;-88
2021/12/07 12:41:11;;;;;;;5.88;1.60;;;20.60;43.70;;;;;;5115058;28;20477;-86
2021/12/07 12:43:43;;;;;;;3.45;1.33;;;20.60;43.70;;;;;;5116320;28;20020;-87
2021/12/07 12:46:12;;;;;;;3.92;1.08;;;20.60;43.80;;;;;;5116289;28;20028;-88
2021/12/07 12:48:41;;;;;;;5.28;0.93;;;20.60;43.80;;;;;;5114622;28;20074;-86
2021/12/07 12:51:09;;;;;;;3.30;1.10;;;20.60;43.90;;;;;;5116020;28;20059;-88
2021/12/07 12:53:35;;;;;;;4.50;1.02;;;20.60;43.90;;;;;;5114657;28;20053;-89
2021/12/07 12:56:04;;;;;;;4.80;1.05;;;20.60;43.90;;;;;;5097672;28;20474;-86
2021/12/07 12:58:34;;;;;;;5.72;1.40;;;20.60;43.90;;;;;;5115566;28;20453;-86
2021/12/07 13:01:16;;;;;;;4.38;1.13;;;20.60;43.90;;;;;;5115939;28;20043;-89
2021/12/07 13:04:08;;;;;;;5.53;1.20;;;20.60;43.90;;;;;;5114704;28;20534;-87
2021/12/07 13:06:33;;;;;;;4.65;1.15;;;20.60;43.90;;;;;;5114556;28;20107;-89
2021/12/07 13:09:09;;;;;;;3.45;1.20;;;20.60;43.90;;;;;;5114509;28;20059;-89
2021/12/07 13:11:54;;;;;;;3.05;0.90;;;20.60;43.90;;;;;;5115856;28;20023;-87
2021/12/07 13:14:23;;;;;;;5.03;1.25;;;20.60;44.00;;;;;;5115844;28;20062;-87
2021/12/07 13:17:04;;;;;;;3.80;1.10;;;20.50;44.00;;;;;;5114324;28;20028;-86
2021/12/07 13:19:30;;;;;;;4.10;1.17;;;20.60;44.10;;;;;;5114071;28;20097;-89
2021/12/07 13:22:03;;;;;;;4.10;1.27;;;20.60;44.10;;;;;;5115179;28;20016;-86
2021/12/07 13:24:40;;;;;;;2.35;1.00;;;20.60;44.00;;;;;;5114659;28;20372;-88
2021/12/07 13:27:13;;;;;;;4.10;1.20;;;20.60;44.10;;;;;;5115290;28;20454;-88
2021/12/07 13:29:44;;;;;;;;;;;20.60;44.10;;;;;;5114506;28;20381;-87
2021/12/07 13:32:10;;;;;;;5.43;1.20;;;20.50;44.20;;;;;;5113867;28;19910;-89
2021/12/07 13:34:37;;;;;;;3.33;1.00;;;20.50;44.20;;;;;;5119090;28;20027;-89
2021/12/07 13:37:13;;;;;;;3.67;1.23;;;20.50;44.20;;;;;;5125686;28;20052;-87
2021/12/07 13:39:44;;;;;;;3.55;1.10;;;20.50;44.20;;;;;;5126507;28;20028;-86
2021/12/07 13:42:22;;;;;;;6.07;1.30;;;20.50;44.20;;;;;;5124040;28;20019;-89
2021/12/07 13:44:57;;;;;;;4.10;1.10;;;20.50;44.20;;;;;;5124487;28;20377;-89
2021/12/07 13:47:28;;;;;;;3.67;1.05;;;20.50;44.20;;;;;;5121422;28;20019;-88
2021/12/07 13:50:01;;;;;;;2.75;1.13;;;20.50;44.20;;;;;;5120996;28;20038;-88
2021/12/07 13:52:30;;;;;;;3.50;1.10;;;20.50;44.20;;;;;;5115059;28;20030;-88
2021/12/07 13:54:58;;;;;;;4.00;0.98;;;20.50;44.20;;;;;;5114789;28;20035;-87
2021/12/07 13:57:32;;;;;;;2.83;0.98;;;20.50;44.20;;;;;;5114602;28;20028;-90
2021/12/07 14:00:14;;;;;;;3.08;1.20;;;20.50;44.20;;;;;;5114615;28;20024;-87
2021/12/07 14:02:51;;;;;;;2.77;0.93;;;20.60;44.20;;;;;;5113506;28;20068;-87
2021/12/07 14:05:26;;;;;;;5.18;1.35;;;20.50;44.20;;;;;;5114890;28;20072;-89
2021/12/07 14:07:53;;;;;;;3.95;1.10;;;20.50;44.20;;;;;;5114613;28;20553;-87
2021/12/07 14:10:40;;;;;;;2.20;1.00;;;20.50;44.30;;;;;;5114481;28;20031;-88
2021/12/07 14:13:06;;;;;;;2.40;1.17;;;20.60;44.30;;;;;;5113565;28;20039;-87
2021/12/07 14:15:35;;;;;;;3.38;1.08;;;20.60;44.30;;;;;;5114572;28;20023;-87
2021/12/07 14:18:07;;;;;;;3.47;1.35;;;20.60;44.30;;;;;;5114365;28;20020;-88
2021/12/07 14:20:37;;;;;;;2.10;1.10;;;20.60;44.20;;;;;;5114434;28;20023;-87
2021/12/07 14:23:30;;;;;;;2.30;0.80;;;20.70;44.30;;;;;;5114326;28;20063;-87
2021/12/07 14:25:57;;;;;;;;;;;20.80;44.30;;;;;;5113572;28;20023;-87
2021/12/07 14:29:02;;;;;;;2.63;0.90;;;20.80;44.20;;;;;;5114446;28;20250;-88
2021/12/07 14:31:40;;;;;;;3.03;1.00;;;20.80;44.10;;;;;;5051550;28;20025;-87
2021/12/07 14:34:07;;;;;;;3.72;1.30;;;20.90;44.00;;;;;;5107917;28;20072;-90
2021/12/07 14:36:45;;;;;;;3.40;1.20;;;21.00;43.80;;;;;;5114305;28;20407;-88
2021/12/07 14:39:18;;;;;;;2.65;1.08;;;21.10;43.70;;;;;;5112763;28;20372;-89
2021/12/07 14:41:47;;;;;;;1.73;0.90;;;21.10;43.50;;;;;;5113011;28;20027;-89
2021/12/07 14:44:24;;;;;;;2.55;1.05;;;21.20;43.50;;;;;;5114202;28;20079;-88
2021/12/07 14:46:52;;;;;;;3.45;1.17;;;21.30;43.30;;;;;;5114144;28;20040;-89
2021/12/07 14:49:18;;;;;;;2.63;1.10;;;21.40;43.30;;;;;;5114001;28;20156;-87
2021/12/07 14:51:45;;;;;;;4.13;1.23;;;21.40;43.10;;;;;;5114101;28;20536;-88